Time;durP1;ratioP1;P1;durP2;ratioP2;P2;SDS_P1;SDS_P2;PMS_P1;PMS_P2;Temp;Humidity;BMP_temperature;BMP_pressure;BME280_temperature;BME280_humidity;BME280_pressure;Samples;Min_cycle;Max_cycle;Signal;HPM_P1;HPM_P2
2022/10/04 00:00:40;;;;;;;13.80;4.30;;;13.30;99.80;;;;;;5015389;28;20072;-87
2022/10/04 00:03:23;;;;;;;13.18;4.25;;;13.40;99.90;;;;;;5033482;28;20557;-85
2022/10/04 00:05:52;;;;;;;12.57;4.45;;;13.40;99.90;;;;;;5033336;28;20024;-85
2022/10/04 00:08:36;;;;;;;11.43;4.32;;;13.40;99.90;;;;;;5015636;28;20060;-85
2022/10/04 00:11:12;;;;;;;10.23;4.15;;;13.40;99.90;;;;;;5032316;28;20056;-85
2022/10/04 00:13:39;;;;;;;12.48;4.10;;;13.40;99.90;;;;;;5015759;28;20021;-85
2022/10/04 00:16:05;;;;;;;12.07;4.18;;;13.40;99.90;;;;;;5015461;28;20075;-85
2022/10/04 00:18:44;;;;;;;13.27;4.20;;;13.40;99.90;;;;;;5015704;28;20452;-85
2022/10/04 00:21:09;;;;;;;11.00;4.20;;;13.40;99.90;;;;;;5015370;28;20025;-85
2022/10/04 00:23:35;;;;;;;11.98;4.38;;;13.50;99.90;;;;;;5015393;28;20029;-85
2022/10/04 00:26:11;;;;;;;9.57;4.50;;;13.40;99.90;;;;;;5031867;28;20501;-85
2022/10/04 00:28:38;;;;;;;8.43;4.03;;;13.40;99.90;;;;;;5015508;28;20359;-86
2022/10/04 00:31:20;;;;;;;9.98;3.97;;;13.40;99.90;;;;;;5032171;28;20022;-86
2022/10/04 00:34:25;;;;;;;12.73;5.28;;;13.40;99.90;;;;;;5033358;28;20026;-86
2022/10/04 00:36:54;;;;;;;10.13;4.18;;;13.40;99.90;;;;;;5033167;28;20079;-86
2022/10/04 00:39:33;;;;;;;17.63;4.65;;;13.50;99.90;;;;;;4999783;28;20022;-86
2022/10/04 00:42:27;;;;;;;11.18;4.25;;;13.50;99.90;;;;;;5032034;28;20030;-85
2022/10/04 00:45:09;;;;;;;10.40;4.57;;;13.40;99.90;;;;;;5031767;28;20025;-86
2022/10/04 00:48:04;;;;;;;8.88;3.60;;;13.40;99.90;;;;;;5015979;28;20033;-86
2022/10/04 00:50:35;;;;;;;;;;;13.40;99.90;;;;;;5032899;28;20028;-86
2022/10/04 00:53:10;;;;;;;11.48;4.30;;;13.40;99.90;;;;;;5031748;28;19905;-86
2022/10/04 00:55:42;;;;;;;13.02;5.07;;;13.40;99.90;;;;;;5015540;28;20045;-86
2022/10/04 00:58:16;;;;;;;11.80;4.38;;;13.40;99.90;;;;;;5015179;28;20029;-86
2022/10/04 01:00:43;;;;;;;10.75;4.93;;;13.40;99.90;;;;;;5017084;28;20457;-86
2022/10/04 01:03:29;;;;;;;10.52;4.78;;;13.40;99.90;;;;;;5035471;28;20478;-86
2022/10/04 01:05:59;;;;;;;18.65;5.88;;;13.40;99.90;;;;;;5018715;28;20029;-85
2022/10/04 01:08:30;;;;;;;15.63;6.15;;;13.30;99.90;;;;;;5018687;28;20385;-85
2022/10/04 01:11:13;;;;;;;12.07;5.68;;;13.40;99.90;;;;;;5018539;28;20036;-86
2022/10/04 01:13:46;;;;;;;14.88;6.43;;;13.40;99.90;;;;;;5035039;28;20029;-86
2022/10/04 01:16:21;;;;;;;12.35;5.10;;;13.40;99.90;;;;;;5018383;28;20018;-86
2022/10/04 01:18:47;;;;;;;14.00;5.82;;;13.30;99.90;;;;;;5018573;28;20553;-86
2022/10/04 01:21:19;;;;;;;16.38;6.05;;;13.40;99.90;;;;;;5001981;28;20034;-82
2022/10/04 01:23:55;;;;;;;11.38;5.53;;;13.40;99.90;;;;;;5035944;28;20028;-82
2022/10/04 01:26:33;;;;;;;11.27;5.80;;;13.40;99.90;;;;;;5034580;28;20017;-81
2022/10/04 01:29:28;;;;;;;10.68;5.40;;;13.40;99.90;;;;;;5034405;28;20021;-81
2022/10/04 01:31:56;;;;;;;11.27;5.30;;;13.30;99.90;;;;;;5018312;28;20045;-86
2022/10/04 01:34:24;;;;;;;11.68;6.15;;;13.30;99.90;;;;;;5018080;28;20026;-86
2022/10/04 01:36:53;;;;;;;10.88;5.75;;;13.30;99.90;;;;;;5018349;28;20033;-85
2022/10/04 01:39:21;;;;;;;12.05;4.60;;;13.30;99.90;;;;;;5018009;28;20036;-86
2022/10/04 01:41:51;;;;;;;8.82;4.88;;;13.30;99.90;;;;;;5018112;28;20021;-86
2022/10/04 01:44:32;;;;;;;12.40;5.00;;;13.30;99.90;;;;;;5036009;28;20017;-86
2022/10/04 01:47:03;;;;;;;10.50;4.68;;;13.30;99.90;;;;;;5034694;28;20027;-85
2022/10/04 01:49:31;;;;;;;11.93;5.20;;;13.20;99.90;;;;;;5017961;28;20020;-86
2022/10/04 01:52:21;;;;;;;16.60;4.88;;;13.20;99.90;;;;;;5018272;28;20017;-85
2022/10/04 01:54:51;;;;;;;12.43;4.20;;;13.20;99.90;;;;;;5017752;28;20052;-86
2022/10/04 01:57:21;;;;;;;9.07;4.93;;;13.20;99.90;;;;;;5018062;28;20192;-86
2022/10/04 01:59:52;;;;;;;10.80;5.32;;;13.20;99.90;;;;;;5017689;28;20054;-85
2022/10/04 02:02:31;;;;;;;11.63;5.57;;;13.20;99.90;;;;;;5017728;28;20116;-86
2022/10/04 02:04:59;;;;;;;10.82;6.22;;;13.20;99.90;;;;;;5017824;28;20026;-86
2022/10/04 02:07:30;;;;;;;16.00;6.10;;;13.20;99.90;;;;;;5001327;28;20025;-86
2022/10/04 02:10:00;;;;;;;12.63;5.97;;;13.20;99.90;;;;;;5017420;28;20389;-86
2022/10/04 02:12:32;;;;;;;10.50;6.10;;;13.20;99.90;;;;;;5034363;28;20021;-86
2022/10/04 02:15:01;;;;;;;12.23;6.15;;;13.10;99.90;;;;;;5001490;28;20025;-86
2022/10/04 02:17:36;;;;;;;12.02;6.70;;;13.10;99.90;;;;;;5017548;28;20021;-86
2022/10/04 02:20:08;;;;;;;13.63;8.25;;;13.10;99.90;;;;;;5033900;28;20017;-86
2022/10/04 02:22:34;;;;;;;11.57;6.95;;;13.10;99.90;;;;;;5017121;28;20052;-85
2022/10/04 02:25:01;;;;;;;17.98;7.68;;;13.10;99.90;;;;;;5000901;28;20029;-86
2022/10/04 02:27:28;;;;;;;14.05;7.03;;;13.10;99.90;;;;;;5017349;28;20031;-86
2022/10/04 02:30:03;;;;;;;15.13;8.20;;;13.00;99.90;;;;;;5017144;28;20021;-86
2022/10/04 02:35:16;;;;;;;16.40;7.20;;;13.00;99.90;;;;;;5034938;28;20076;-86
2022/10/04 02:37:41;;;;;;;13.80;7.18;;;13.00;99.90;;;;;;5000690;28;20064;-86
2022/10/04 02:40:12;;;;;;;14.05;7.75;;;13.00;99.90;;;;;;5034667;28;20029;-86
2022/10/04 02:42:44;;;;;;;16.58;8.27;;;13.00;99.90;;;;;;5016846;28;20032;-86
2022/10/04 02:45:20;;;;;;;12.95;7.38;;;12.90;99.90;;;;;;5033488;28;20025;-85
2022/10/04 02:47:51;;;;;;;17.75;8.55;;;12.90;99.90;;;;;;5033442;28;20032;-85
2022/10/04 02:50:20;;;;;;;17.05;8.35;;;12.90;99.90;;;;;;5016684;28;20026;-85
2022/10/04 02:52:52;;;;;;;15.68;8.05;;;12.80;99.90;;;;;;5033212;28;20029;-86
2022/10/04 02:55:30;;;;;;;17.27;8.38;;;12.80;99.90;;;;;;5016578;28;20072;-85
2022/10/04 02:57:57;;;;;;;15.60;7.43;;;12.80;99.90;;;;;;5016446;28;20033;-86
2022/10/04 03:00:30;;;;;;;15.40;8.50;;;12.70;99.90;;;;;;4999992;28;20053;-86
2022/10/04 03:03:18;;;;;;;19.00;8.13;;;12.70;99.90;;;;;;5016500;28;20100;-86
2022/10/04 03:05:52;;;;;;;18.42;8.43;;;12.70;99.90;;;;;;5032828;28;20026;-85
2022/10/04 03:08:18;;;;;;;16.05;8.65;;;12.70;99.90;;;;;;5016485;28;20112;-86
2022/10/04 03:10:44;;;;;;;16.35;8.52;;;12.60;99.90;;;;;;5000158;28;20032;-86
2022/10/04 03:13:12;;;;;;;13.15;8.25;;;12.60;99.90;;;;;;4999956;28;20112;-85
2022/10/04 03:15:38;;;;;;;16.27;8.60;;;12.50;99.90;;;;;;5016353;28;20025;-86
2022/10/04 03:18:04;;;;;;;16.55;8.25;;;12.50;99.90;;;;;;5016341;28;20056;-86
2022/10/04 03:20:34;;;;;;;19.25;8.98;;;12.50;99.90;;;;;;5000466;28;20120;-86
2022/10/04 03:23:00;;;;;;;14.70;8.90;;;12.50;99.90;;;;;;5000253;28;20029;-86
2022/10/04 03:25:40;;;;;;;17.98;8.93;;;12.40;99.90;;;;;;5000130;28;20474;-87
2022/10/04 03:28:07;;;;;;;13.40;7.82;;;12.50;99.90;;;;;;5016226;28;20020;-86
2022/10/04 03:30:35;;;;;;;18.50;7.97;;;12.40;99.90;;;;;;5016430;28;20031;-86
2022/10/04 03:33:01;;;;;;;12.70;8.00;;;12.40;99.90;;;;;;5000177;28;20037;-86
2022/10/04 03:35:35;;;;;;;18.63;8.18;;;12.40;99.90;;;;;;5000322;28;20026;-86
2022/10/04 03:38:07;;;;;;;16.75;7.95;;;12.30;99.90;;;;;;5016144;28;20021;-86
2022/10/04 03:40:36;;;;;;;19.58;8.98;;;12.30;99.90;;;;;;5033823;28;20048;-86
2022/10/04 03:43:04;;;;;;;17.10;9.23;;;12.30;99.90;;;;;;5015870;28;20056;-86
2022/10/04 03:45:33;;;;;;;18.65;9.93;;;12.30;99.90;;;;;;5015994;28;20021;-86
2022/10/04 03:48:05;;;;;;;14.57;8.82;;;12.20;99.90;;;;;;5021364;28;20025;-86
2022/10/04 03:50:36;;;;;;;14.18;8.88;;;12.20;99.90;;;;;;5034237;28;20108;-86
2022/10/04 03:53:10;;;;;;;16.60;9.40;;;12.20;99.90;;;;;;5034360;28;20032;-86
2022/10/04 03:55:42;;;;;;;14.68;9.02;;;12.20;99.90;;;;;;5034351;28;20120;-86
2022/10/04 03:58:12;;;;;;;15.93;8.63;;;12.10;99.90;;;;;;5035308;28;20452;-86
2022/10/04 04:00:59;;;;;;;17.60;9.00;;;12.10;99.90;;;;;;5035333;28;20492;-86
2022/10/04 04:03:28;;;;;;;16.42;9.73;;;12.10;99.90;;;;;;5035895;28;20029;-88
2022/10/04 04:05:58;;;;;;;14.38;9.32;;;12.10;99.90;;;;;;5036163;28;20025;-88
2022/10/04 04:08:29;;;;;;;15.85;8.57;;;12.00;99.90;;;;;;5035952;28;20055;-89
2022/10/04 04:10:57;;;;;;;14.40;9.32;;;12.00;99.90;;;;;;5035949;28;20020;-89
2022/10/04 04:13:43;;;;;;;13.70;8.32;;;12.00;99.90;;;;;;5036233;28;20059;-89
2022/10/04 04:16:10;;;;;;;17.50;10.10;;;11.90;99.90;;;;;;5036125;28;20025;-88
2022/10/04 04:18:44;;;;;;;16.30;9.60;;;11.90;99.90;;;;;;5036191;28;20017;-88
2022/10/04 04:21:17;;;;;;;13.98;9.10;;;11.90;99.90;;;;;;5035271;28;20474;-89
2022/10/04 04:23:55;;;;;;;17.35;9.50;;;11.80;99.90;;;;;;5036155;28;20032;-89
2022/10/04 04:26:47;;;;;;;13.98;8.70;;;11.80;99.90;;;;;;5031669;28;20060;-89
2022/10/04 04:29:35;;;;;;;12.35;8.35;;;11.80;99.90;;;;;;5034285;28;20026;-88
2022/10/04 04:32:07;;;;;;;15.10;9.00;;;11.80;99.90;;;;;;5026486;28;20036;-88
2022/10/04 04:34:47;;;;;;;13.82;8.35;;;11.70;99.90;;;;;;5032304;28;20061;-89
2022/10/04 04:37:13;;;;;;;15.50;9.05;;;11.70;99.90;;;;;;5035563;28;20036;-89
2022/10/04 04:39:44;;;;;;;12.27;8.00;;;11.60;99.90;;;;;;5036277;28;20025;-89
2022/10/04 04:42:09;;;;;;;15.43;9.73;;;11.60;99.90;;;;;;5020477;28;20034;-89
2022/10/04 04:44:46;;;;;;;20.45;9.02;;;11.60;99.90;;;;;;5036475;28;20026;-88
2022/10/04 04:47:26;;;;;;;16.67;9.67;;;11.50;99.90;;;;;;5036092;28;20504;-88
2022/10/04 04:49:54;;;;;;;14.98;9.68;;;11.50;99.90;;;;;;5036143;28;20437;-89
2022/10/04 04:52:24;;;;;;;14.17;8.87;;;11.50;99.90;;;;;;5036058;28;20113;-89
2022/10/04 04:54:51;;;;;;;16.40;10.03;;;11.40;99.90;;;;;;5035823;28;20026;-89
2022/10/04 04:57:18;;;;;;;16.13;9.80;;;11.40;99.90;;;;;;5036071;28;20037;-89
2022/10/04 04:59:47;;;;;;;16.88;9.82;;;11.40;99.90;;;;;;5003146;28;20037;-89
2022/10/04 05:02:27;;;;;;;23.70;11.00;;;11.40;99.90;;;;;;5035515;28;20183;-89
2022/10/04 05:05:13;;;;;;;20.47;11.67;;;11.40;99.90;;;;;;5035791;28;20093;-89
2022/10/04 05:07:42;;;;;;;17.08;10.50;;;11.30;99.90;;;;;;5036001;28;20018;-89
2022/10/04 05:10:31;;;;;;;16.80;10.07;;;11.30;99.90;;;;;;5035732;28;20095;-89
2022/10/04 05:12:59;;;;;;;18.43;9.73;;;11.30;99.90;;;;;;5035559;28;20373;-89
2022/10/04 05:15:27;;;;;;;16.83;9.50;;;11.20;99.90;;;;;;5035656;28;20106;-88
2022/10/04 05:17:53;;;;;;;17.13;10.67;;;11.20;99.90;;;;;;5036531;28;20029;-87
2022/10/04 05:20:18;;;;;;;19.43;11.80;;;11.20;99.90;;;;;;5018944;28;20041;-88
2022/10/04 05:22:48;;;;;;;21.20;11.20;;;11.20;99.90;;;;;;5035254;28;20025;-88
2022/10/04 05:25:27;;;;;;;22.00;12.43;;;11.20;99.90;;;;;;5035397;28;20025;-88
2022/10/04 05:27:54;;;;;;;24.13;11.33;;;11.10;99.90;;;;;;5035302;28;20049;-87
2022/10/04 05:30:57;;;;;;;18.83;10.60;;;11.10;99.90;;;;;;5002453;28;20041;-89
2022/10/04 05:33:39;;;;;;;18.30;10.97;;;11.10;99.90;;;;;;5035121;28;20022;-88
2022/10/04 05:36:12;;;;;;;18.13;10.40;;;11.10;99.90;;;;;;5034952;28;20366;-88
2022/10/04 05:38:47;;;;;;;19.00;9.93;;;11.10;99.90;;;;;;5035006;28;20053;-87
2022/10/04 05:41:26;;;;;;;21.20;12.13;;;10.90;99.90;;;;;;5036362;28;20500;-88
2022/10/04 05:43:52;;;;;;;17.50;10.77;;;11.10;99.90;;;;;;5018128;28;20030;-88
2022/10/04 05:46:52;;;;;;;17.20;12.07;;;11.00;99.90;;;;;;5035933;28;20087;-89
2022/10/04 05:49:19;;;;;;;16.83;11.00;;;11.00;99.90;;;;;;5036705;28;20025;-88
2022/10/04 05:51:52;;;;;;;16.75;11.27;;;11.10;99.90;;;;;;5016946;28;20025;-89
2022/10/04 05:54:26;;;;;;;23.03;12.53;;;11.10;99.90;;;;;;5028969;28;20021;-89
2022/10/04 05:57:34;;;;;;;19.60;11.10;;;11.10;99.90;;;;;;5037290;28;20025;-82
2022/10/04 06:00:20;;;;;;;19.67;11.73;;;11.10;99.90;;;;;;5046414;28;20114;-82
2022/10/04 06:03:03;;;;;;;17.77;12.00;;;11.10;99.90;;;;;;5022948;28;20485;-83
2022/10/04 06:06:19;;;;;;;21.73;11.20;;;11.10;99.90;;;;;;5036757;28;20017;-82
2022/10/04 06:09:04;;;;;;;19.77;11.60;;;11.10;99.90;;;;;;4974189;28;20023;-82
2022/10/04 06:12:04;;;;;;;17.33;11.27;;;11.00;99.90;;;;;;4974083;28;20110;-83
2022/10/04 06:15:10;;;;;;;21.53;11.27;;;11.10;99.90;;;;;;5023369;28;20058;-83
2022/10/04 06:17:56;;;;;;;17.87;11.27;;;11.10;99.90;;;;;;5036689;28;20544;-83
2022/10/04 06:20:59;;;;;;;16.33;10.50;;;11.10;99.90;;;;;;5033813;28;20485;-83
2022/10/04 06:23:32;;;;;;;16.40;10.93;;;11.20;99.90;;;;;;5036626;28;20029;-84
2022/10/04 06:26:17;;;;;;;18.42;10.70;;;11.10;99.90;;;;;;5055295;28;20405;-83
2022/10/04 06:28:50;;;;;;;16.83;11.00;;;11.10;99.90;;;;;;5037044;28;20017;-83
2022/10/04 06:31:24;;;;;;;16.02;10.45;;;11.10;99.90;;;;;;5037107;28;20052;-84
2022/10/04 06:34:29;;;;;;;18.13;11.13;;;11.10;99.90;;;;;;5036723;28;20434;-83
2022/10/04 06:37:22;;;;;;;18.40;10.52;;;11.00;99.90;;;;;;5036354;28;20043;-84
2022/10/04 06:39:56;;;;;;;20.23;11.23;;;11.10;99.90;;;;;;5035995;28;20112;-83
2022/10/04 06:42:24;;;;;;;;;;;11.20;99.90;;;;;;5036705;28;20025;-84
2022/10/04 06:45:14;;;;;;;17.42;9.85;;;11.20;99.90;;;;;;5052795;28;20308;-83
2022/10/04 06:47:56;;;;;;;16.33;10.15;;;11.20;99.90;;;;;;5036527;28;20044;-84
2022/10/04 06:50:43;;;;;;;15.03;10.00;;;11.20;99.90;;;;;;5036218;28;20025;-84
2022/10/04 06:53:50;;;;;;;15.40;9.90;;;11.20;99.90;;;;;;5036438;28;20035;-83
2022/10/04 06:56:56;;;;;;;16.50;9.60;;;11.30;99.90;;;;;;5036124;28;20060;-84
2022/10/04 06:59:48;;;;;;;15.18;10.45;;;11.30;99.90;;;;;;5035842;28;20091;-84
2022/10/04 07:02:21;;;;;;;16.15;9.70;;;11.30;99.90;;;;;;5032438;28;20095;-84
2022/10/04 07:05:18;;;;;;;18.23;10.63;;;11.30;99.90;;;;;;5034308;28;20052;-84
2022/10/04 07:08:05;;;;;;;17.08;9.93;;;11.30;99.90;;;;;;5033125;28;20021;-84
2022/10/04 07:10:57;;;;;;;16.67;9.55;;;11.40;99.90;;;;;;5035417;28;20385;-84
2022/10/04 07:13:50;;;;;;;16.48;9.60;;;11.30;99.90;;;;;;5017718;28;20063;-85
2022/10/04 07:16:15;;;;;;;13.65;8.90;;;11.30;99.90;;;;;;5032972;28;20482;-85
2022/10/04 07:18:50;;;;;;;20.27;9.85;;;11.40;99.90;;;;;;5033551;28;20091;-85
2022/10/04 07:21:26;;;;;;;16.02;8.82;;;11.40;99.90;;;;;;5033915;28;20393;-84
2022/10/04 07:24:02;;;;;;;17.40;9.18;;;11.50;99.90;;;;;;5032560;28;20022;-84
2022/10/04 07:26:36;;;;;;;15.02;8.27;;;11.60;99.90;;;;;;5032501;28;20108;-84
2022/10/04 07:29:25;;;;;;;13.70;8.18;;;11.60;99.90;;;;;;5032266;28;20018;-85
2022/10/04 07:32:04;;;;;;;16.08;8.95;;;11.70;99.90;;;;;;5049201;28;20038;-84
2022/10/04 07:35:03;;;;;;;16.15;8.90;;;11.70;99.90;;;;;;5032661;28;20056;-84
2022/10/04 07:37:35;;;;;;;12.60;7.53;;;11.80;99.90;;;;;;5032954;28;20026;-87
2022/10/04 07:40:16;;;;;;;10.65;6.60;;;12.00;99.90;;;;;;5032873;28;20030;-88
2022/10/04 07:42:58;;;;;;;14.05;7.18;;;12.00;99.90;;;;;;5032813;28;20035;-87
2022/10/04 07:45:39;;;;;;;14.07;7.47;;;12.00;99.90;;;;;;5032682;28;20024;-87
2022/10/04 07:48:22;;;;;;;14.82;7.38;;;12.10;99.90;;;;;;5032061;28;20030;-83
2022/10/04 07:50:56;;;;;;;11.82;5.85;;;12.20;99.90;;;;;;5048572;28;20021;-84
2022/10/04 07:53:31;;;;;;;13.27;6.13;;;12.20;99.90;;;;;;5033425;28;20025;-83
2022/10/04 07:56:16;;;;;;;12.40;6.60;;;12.20;99.90;;;;;;5031996;28;20055;-85
2022/10/04 07:59:09;;;;;;;11.88;6.07;;;12.20;99.90;;;;;;5031870;28;20029;-82
2022/10/04 08:01:45;;;;;;;13.85;6.75;;;12.20;99.90;;;;;;5045792;28;20049;-85
2022/10/04 08:04:27;;;;;;;14.45;6.15;;;12.20;99.90;;;;;;5034852;28;20427;-82
2022/10/04 08:07:00;;;;;;;13.60;5.90;;;12.30;99.90;;;;;;5035347;28;20098;-83
2022/10/04 08:09:50;;;;;;;14.57;7.13;;;12.30;99.90;;;;;;5035098;28;20496;-84
2022/10/04 08:12:50;;;;;;;14.68;7.20;;;12.40;99.90;;;;;;5039322;28;20025;-83
2022/10/04 08:15:42;;;;;;;13.68;6.90;;;12.30;99.90;;;;;;5057188;28;20021;-83
2022/10/04 08:18:33;;;;;;;10.88;6.35;;;12.40;99.90;;;;;;5034078;28;20057;-86
2022/10/04 08:21:06;;;;;;;10.90;6.57;;;12.50;99.90;;;;;;5056808;28;20052;-83
2022/10/04 08:24:03;;;;;;;16.85;6.93;;;12.50;99.90;;;;;;5056953;28;20025;-83
2022/10/04 08:26:48;;;;;;;14.43;6.93;;;12.60;99.90;;;;;;5038836;28;20017;-84
2022/10/04 08:29:52;;;;;;;12.75;7.10;;;12.60;99.90;;;;;;5038765;28;20056;-85
2022/10/04 08:32:48;;;;;;;15.02;6.95;;;12.70;99.90;;;;;;5003749;28;20029;-82
2022/10/04 08:35:28;;;;;;;17.38;7.68;;;12.70;99.90;;;;;;5038533;28;20037;-84
2022/10/04 08:38:15;;;;;;;13.82;6.70;;;12.80;99.90;;;;;;5038788;28;20274;-84
2022/10/04 08:40:59;;;;;;;12.60;6.75;;;12.80;99.90;;;;;;5056587;28;20054;-84
2022/10/04 08:43:36;;;;;;;;;;;12.80;99.90;;;;;;5039090;28;20028;-84
2022/10/04 08:46:32;;;;;;;10.77;6.70;;;12.90;99.90;;;;;;5056491;28;19905;-85
2022/10/04 08:49:29;;;;;;;15.25;6.57;;;12.90;99.90;;;;;;5038828;28;20032;-81
2022/10/04 08:52:22;;;;;;;17.75;6.55;;;13.00;99.90;;;;;;5038887;28;20033;-84
2022/10/04 08:55:10;;;;;;;16.35;6.97;;;13.10;99.90;;;;;;5038247;28;20036;-84
2022/10/04 08:57:54;;;;;;;15.38;8.05;;;13.20;99.90;;;;;;5038339;28;20465;-84
2022/10/04 09:00:26;;;;;;;11.25;7.55;;;13.20;99.90;;;;;;5055870;28;20151;-84
2022/10/04 09:03:33;;;;;;;14.02;7.25;;;13.30;99.90;;;;;;5056039;28;20421;-83
2022/10/04 09:06:12;;;;;;;13.15;7.05;;;13.40;99.90;;;;;;4975547;28;20037;-83
2022/10/04 09:08:56;;;;;;;15.13;6.25;;;13.40;99.90;;;;;;5038284;28;20138;-84
2022/10/04 09:11:40;;;;;;;14.20;6.18;;;13.50;99.90;;;;;;5037986;28;20021;-83
2022/10/04 09:14:40;;;;;;;10.90;6.35;;;13.70;99.90;;;;;;5037943;28;20457;-86
2022/10/04 09:17:18;;;;;;;12.63;6.82;;;13.70;99.90;;;;;;5037887;28;20032;-84
2022/10/04 09:20:05;;;;;;;17.85;7.43;;;13.80;99.60;;;;;;5037882;28;20060;-85
2022/10/04 09:22:46;;;;;;;11.82;7.03;;;13.90;99.10;;;;;;5037414;28;20392;-85
2022/10/04 09:25:42;;;;;;;13.65;6.63;;;14.00;98.90;;;;;;5037278;28;20055;-84
2022/10/04 09:28:37;;;;;;;13.65;6.57;;;14.00;98.80;;;;;;5055661;28;20477;-84
2022/10/04 09:31:21;;;;;;;13.15;6.88;;;14.10;98.70;;;;;;5037631;28;20488;-81
2022/10/04 09:34:16;;;;;;;14.20;7.15;;;14.20;98.50;;;;;;5038225;28;20032;-83
2022/10/04 09:37:06;;;;;;;14.57;6.88;;;14.30;98.30;;;;;;5055793;28;20017;-83
2022/10/04 09:40:11;;;;;;;14.52;6.25;;;14.40;98.00;;;;;;5038364;28;20567;-82
2022/10/04 09:43:04;;;;;;;13.48;5.82;;;14.50;98.00;;;;;;5037559;28;20037;-85
2022/10/04 09:45:45;;;;;;;12.40;5.72;;;14.70;97.30;;;;;;5055486;28;20542;-84
2022/10/04 09:48:23;;;;;;;12.10;4.75;;;15.00;96.90;;;;;;5037621;28;20032;-83
2022/10/04 09:51:14;;;;;;;9.02;4.18;;;15.30;96.60;;;;;;5055472;28;20104;-82
2022/10/04 09:53:50;;;;;;;12.13;5.45;;;15.80;96.60;;;;;;5037413;28;20397;-85
2022/10/04 09:56:36;;;;;;;8.13;3.80;;;16.30;96.10;;;;;;5037412;28;20029;-84
2022/10/04 09:59:23;;;;;;;7.68;2.80;;;16.90;95.90;;;;;;5055192;28;20036;-84
2022/10/04 10:02:35;;;;;;;8.07;2.70;;;17.70;94.70;;;;;;5037316;28;20051;-86
2022/10/04 10:05:34;;;;;;;10.15;2.40;;;18.60;94.10;;;;;;5013850;28;20083;-89
2022/10/04 10:08:26;;;;;;;7.38;2.15;;;19.50;93.80;;;;;;5037273;28;20068;-86
2022/10/04 10:14:10;;;;;;;7.63;2.00;;;21.10;90.00;;;;;;5055436;28;20036;-85
2022/10/04 10:16:52;;;;;;;6.95;1.73;;;22.00;86.30;;;;;;5039548;28;20051;-85
2022/10/04 10:19:49;;;;;;;4.75;1.67;;;22.70;83.10;;;;;;5037043;28;20075;-83
2022/10/04 10:22:47;;;;;;;10.13;2.33;;;23.40;76.00;;;;;;5036947;28;20060;-85
2022/10/04 10:25:34;;;;;;;5.85;1.70;;;23.80;71.90;;;;;;5036756;28;20087;-84
2022/10/04 10:28:24;;;;;;;4.63;1.73;;;24.30;68.50;;;;;;5036939;28;20406;-85
2022/10/04 10:31:18;;;;;;;4.45;1.90;;;24.50;66.00;;;;;;5055330;28;20025;-85
2022/10/04 10:34:11;;;;;;;5.65;1.40;;;24.80;65.30;;;;;;5036523;28;20173;-86
2022/10/04 10:36:48;;;;;;;5.45;1.65;;;25.00;62.30;;;;;;5036787;28;20021;-84
2022/10/04 10:39:21;;;;;;;4.55;1.30;;;25.30;64.00;;;;;;5028533;28;20104;-87
2022/10/04 10:42:12;;;;;;;5.32;1.85;;;25.90;62.90;;;;;;5016786;28;20367;-85
2022/10/04 10:45:20;;;;;;;8.07;2.22;;;26.30;58.90;;;;;;5033282;28;20025;-84
2022/10/04 10:48:34;;;;;;;5.60;1.95;;;26.60;58.00;;;;;;5033474;28;20034;-85
2022/10/04 10:51:09;;;;;;;7.07;1.92;;;26.60;56.60;;;;;;4993094;28;20038;-85
2022/10/04 10:53:59;;;;;;;5.28;2.03;;;26.80;55.40;;;;;;4976753;28;20077;-85
2022/10/04 10:56:48;;;;;;;6.13;1.77;;;27.10;54.50;;;;;;5007412;28;20040;-87
2022/10/04 10:59:34;;;;;;;5.20;1.38;;;27.40;54.40;;;;;;5032933;28;20026;-86
2022/10/04 11:02:05;;;;;;;4.28;1.70;;;27.80;53.10;;;;;;5032505;28;20046;-85
2022/10/04 11:04:53;;;;;;;5.53;1.60;;;28.00;52.50;;;;;;5032913;28;20072;-85
2022/10/04 11:07:38;;;;;;;5.75;1.48;;;28.20;51.60;;;;;;5033137;28;20023;-85
2022/10/04 11:10:21;;;;;;;6.50;2.00;;;28.50;51.00;;;;;;5032627;28;20021;-84
2022/10/04 11:13:17;;;;;;;7.90;1.95;;;28.60;50.60;;;;;;5032623;28;20025;-86
2022/10/04 11:16:27;;;;;;;4.13;1.58;;;28.80;50.20;;;;;;5032772;28;20018;-86
2022/10/04 11:19:14;;;;;;;7.75;1.75;;;28.90;47.80;;;;;;5048080;28;20037;-86
2022/10/04 11:21:52;;;;;;;5.07;1.90;;;28.90;48.30;;;;;;5052118;28;20060;-86
2022/10/04 11:24:33;;;;;;;6.60;1.85;;;29.10;47.80;;;;;;5052227;28;20036;-85
2022/10/04 11:27:17;;;;;;;6.88;1.92;;;29.20;47.40;;;;;;5052126;28;20059;-85
2022/10/04 11:29:42;;;;;;;5.35;1.85;;;29.30;47.00;;;;;;5052046;28;20025;-87
2022/10/04 11:32:30;;;;;;;5.05;1.20;;;29.40;47.20;;;;;;5052503;28;20029;-85
2022/10/04 11:35:20;;;;;;;4.38;1.40;;;29.40;46.10;;;;;;5053336;28;20032;-85
2022/10/04 11:38:08;;;;;;;5.10;1.65;;;29.40;46.00;;;;;;5052262;28;20025;-84
2022/10/04 11:40:33;;;;;;;6.70;1.73;;;29.60;46.50;;;;;;5052072;28;20022;-84
2022/10/04 11:43:49;;;;;;;4.20;1.67;;;29.70;45.80;;;;;;5051963;28;20029;-84
2022/10/04 11:46:50;;;;;;;7.90;2.65;;;29.70;45.30;;;;;;5051986;28;20014;-85
2022/10/04 11:49:37;;;;;;;4.97;1.95;;;29.90;45.00;;;;;;5051918;28;20018;-84
2022/10/04 11:52:27;;;;;;;6.05;1.70;;;29.90;45.20;;;;;;5052096;28;20120;-84
2022/10/04 11:55:31;;;;;;;6.28;1.88;;;30.20;45.10;;;;;;5052406;28;20495;-83
2022/10/04 11:58:33;;;;;;;6.75;1.30;;;30.60;44.40;;;;;;5052069;28;20024;-83
2022/10/04 12:01:37;;;;;;;4.10;1.27;;;31.20;43.20;;;;;;5049980;28;20045;-82
2022/10/04 12:04:19;;;;;;;6.50;1.67;;;31.30;42.20;;;;;;5053141;28;20063;-83
2022/10/04 12:07:26;;;;;;;7.75;1.20;;;31.20;42.20;;;;;;5051706;28;20417;-83
2022/10/04 12:10:14;;;;;;;4.50;1.60;;;30.90;42.20;;;;;;5004918;28;20045;-82
2022/10/04 12:12:52;;;;;;;5.10;1.92;;;30.60;42.50;;;;;;5051792;28;20070;-83
2022/10/04 12:15:37;;;;;;;5.60;1.65;;;30.40;43.00;;;;;;5051530;28;20033;-85
2022/10/04 12:18:08;;;;;;;5.22;1.40;;;30.40;42.90;;;;;;5052786;28;20057;-84
2022/10/04 12:20:53;;;;;;;3.13;1.40;;;30.20;43.00;;;;;;5051535;28;20102;-83
2022/10/04 12:23:32;;;;;;;4.82;1.08;;;29.70;42.60;;;;;;5049701;28;20029;-84
2022/10/04 12:26:16;;;;;;;6.13;1.50;;;29.60;43.40;;;;;;5033362;28;20029;-84
2022/10/04 12:29:24;;;;;;;5.03;1.52;;;29.40;43.30;;;;;;5033854;28;20025;-83
2022/10/04 12:31:53;;;;;;;6.00;1.85;;;29.10;43.30;;;;;;5026727;28;20029;-83
2022/10/04 12:34:38;;;;;;;5.15;1.65;;;28.80;43.30;;;;;;5034853;28;20491;-83
2022/10/04 12:37:12;;;;;;;6.38;1.95;;;28.30;43.40;;;;;;5035062;28;20028;-83
2022/10/04 12:39:59;;;;;;;6.22;1.60;;;27.90;44.10;;;;;;5035853;28;20082;-81
2022/10/04 12:42:33;;;;;;;5.32;1.60;;;27.80;44.80;;;;;;5034892;28;20029;-85
2022/10/04 12:45:20;;;;;;;7.35;1.85;;;28.20;44.80;;;;;;5053095;28;20025;-82
2022/10/04 12:48:08;;;;;;;6.68;1.73;;;28.70;44.30;;;;;;5034878;28;20029;-85
2022/10/04 12:50:59;;;;;;;6.18;1.52;;;29.30;44.20;;;;;;5035058;28;20132;-84
2022/10/04 12:53:51;;;;;;;5.32;1.50;;;29.80;43.70;;;;;;5053186;28;20083;-84
2022/10/04 12:56:34;;;;;;;6.95;1.65;;;30.30;43.10;;;;;;5054759;28;20021;-86
2022/10/04 12:59:18;;;;;;;6.93;1.33;;;30.60;43.20;;;;;;5038370;28;20025;-84
2022/10/04 13:01:50;;;;;;;4.22;1.45;;;30.90;42.40;;;;;;5034926;28;20409;-83
2022/10/04 13:04:22;;;;;;;10.48;1.70;;;31.20;41.80;;;;;;5035164;28;20134;-83
2022/10/04 13:07:25;;;;;;;3.88;1.35;;;31.50;41.50;;;;;;5036235;28;20115;-83
2022/10/04 13:10:28;;;;;;;6.18;1.45;;;31.70;40.90;;;;;;5033750;28;20068;-85
2022/10/04 13:13:27;;;;;;;4.40;1.53;;;31.90;40.50;;;;;;5036333;28;20056;-86
2022/10/04 13:16:00;;;;;;;4.93;1.48;;;32.10;39.70;;;;;;5034726;28;20026;-83
2022/10/04 13:18:45;;;;;;;3.65;0.98;;;32.30;40.10;;;;;;5034649;28;20028;-86
2022/10/04 13:21:21;;;;;;;3.90;1.40;;;32.50;39.80;;;;;;5034812;28;20032;-81
2022/10/04 13:24:53;;;;;;;3.28;1.20;;;32.60;38.90;;;;;;5034835;28;20022;-86
2022/10/04 13:27:30;;;;;;;4.03;1.13;;;32.50;38.90;;;;;;5025837;28;20470;-85
2022/10/04 13:30:22;;;;;;;4.10;1.17;;;32.70;38.70;;;;;;5034632;28;20033;-86
2022/10/04 13:33:36;;;;;;;2.85;1.00;;;32.60;38.10;;;;;;5034803;28;20147;-86
2022/10/04 13:36:18;;;;;;;4.93;1.20;;;32.80;38.40;;;;;;5021897;28;20048;-86
2022/10/04 13:38:44;;;;;;;3.92;0.82;;;33.10;38.80;;;;;;5035275;28;20022;-85
2022/10/04 13:41:25;;;;;;;4.43;0.80;;;33.10;37.20;;;;;;5035116;28;20033;-85
2022/10/04 13:44:00;;;;;;;5.00;0.90;;;32.90;37.00;;;;;;5034595;28;20029;-85
2022/10/04 13:46:51;;;;;;;3.70;1.25;;;32.90;37.50;;;;;;5034962;28;20033;-85
2022/10/04 13:49:28;;;;;;;5.03;1.00;;;32.80;37.00;;;;;;5034175;28;20026;-86
2022/10/04 13:58:40;;;;;;;4.00;1.10;;;32.80;36.90;;;;;;5016407;28;20084;-84
2022/10/04 14:01:37;;;;;;;4.93;1.10;;;32.80;37.20;;;;;;5037294;28;20388;-85